Time;durP1;ratioP1;P1;durP2;ratioP2;P2;SDS_P1;SDS_P2;PMS_P1;PMS_P2;Temp;Humidity;BMP_temperature;BMP_pressure;BME280_temperature;BME280_humidity;BME280_pressure;Samples;Min_cycle;Max_cycle;Signal;HPM_P1;HPM_P2
2023/06/18 00:00:56;;;;;;;14.75;9.75;;;;;;;20.64;75.70;101265.34;5075220;28;20027;-75
2023/06/18 00:03:22;;;;;;;13.50;9.07;;;;;;;20.57;75.72;101273.97;5083478;28;20039;-74
2023/06/18 00:05:47;;;;;;;14.77;8.88;;;;;;;20.69;75.41;101269.72;5096752;28;20802;-74
2023/06/18 00:08:13;;;;;;;16.40;10.40;;;;;;;20.43;76.96;101275.09;5089132;28;20036;-74
2023/06/18 00:10:38;;;;;;;17.33;9.95;;;;;;;20.51;76.33;101270.88;5089240;28;20028;-74
2023/06/18 00:13:04;;;;;;;15.73;9.88;;;;;;;20.40;76.08;101269.47;5085402;28;20038;-73
2023/06/18 00:15:30;;;;;;;15.48;9.43;;;;;;;20.48;76.17;101266.03;5060852;28;21931;-73
2023/06/18 00:17:55;;;;;;;14.63;9.80;;;;;;;20.28;77.86;101268.06;5087438;28;20102;-73
2023/06/18 00:20:21;;;;;;;16.27;10.23;;;;;;;20.39;77.14;101263.00;5088577;28;20078;-73
2023/06/18 00:22:48;;;;;;;12.80;9.18;;;;;;;20.35;76.83;101262.25;5093365;28;20523;-75
2023/06/18 00:25:13;;;;;;;15.38;9.75;;;;;;;20.38;76.19;101255.69;5092753;28;20058;-74
2023/06/18 00:27:40;;;;;;;14.85;10.40;;;;;;;20.30;78.06;101269.25;5091407;28;20043;-74
2023/06/18 00:30:06;;;;;;;17.55;10.13;;;;;;;20.27;77.49;101266.47;5095136;28;20039;-73
2023/06/18 00:32:32;;;;;;;15.25;10.50;;;;;;;20.26;77.39;101265.69;5092124;28;20034;-74
2023/06/18 00:35:00;;;;;;;17.10;10.30;;;;;;;20.26;76.70;101265.69;5094577;28;20504;-74
2023/06/18 00:37:27;;;;;;;16.13;9.95;;;;;;;20.20;77.42;101278.78;5091547;28;20028;-73
2023/06/18 00:39:53;;;;;;;16.05;9.82;;;;;;;20.19;77.57;101262.16;5092673;28;20027;-73
2023/06/18 00:42:20;;;;;;;17.83;10.57;;;;;;;20.10;77.77;101266.38;5091955;28;20031;-74
2023/06/18 00:44:45;;;;;;;17.30;9.73;;;;;;;20.13;77.44;101267.53;5094474;28;20038;-74
2023/06/18 00:47:12;;;;;;;14.88;9.52;;;;;;;20.00;77.41;101270.22;5098279;28;20035;-73
2023/06/18 00:49:40;;;;;;;16.27;9.95;;;;;;;19.98;77.18;101261.31;5091465;28;20035;-74
2023/06/18 00:52:08;;;;;;;18.65;10.50;;;;;;;19.95;78.49;101261.41;5088127;28;20032;-74
2023/06/18 00:54:35;;;;;;;14.38;9.77;;;;;;;20.05;77.49;101266.09;5098160;28;20444;-74
2023/06/18 00:57:03;;;;;;;17.30;10.10;;;;;;;19.95;77.93;101256.53;5088340;28;20452;-74
2023/06/18 00:59:29;;;;;;;15.60;9.60;;;;;;;19.89;78.48;101258.25;5067069;28;20313;-73
2023/06/18 01:01:56;;;;;;;12.75;9.23;;;;;;;19.97;77.47;101254.06;5079065;28;20027;-73
2023/06/18 01:04:27;;;;;;;19.08;10.15;;;;;;;20.01;77.15;101254.00;5091000;28;20042;-74
2023/06/18 01:06:54;;;;;;;15.82;9.60;;;;;;;19.81;79.10;101251.88;5067084;28;20020;-74
2023/06/18 01:09:24;;;;;;;14.48;9.38;;;;;;;19.83;78.36;101254.31;5097226;28;20038;-74
2023/06/18 01:11:53;;;;;;;14.82;9.77;;;;;;;19.75;78.72;101258.50;5095607;28;20051;-74
2023/06/18 01:14:21;;;;;;;13.93;10.50;;;;;;;19.86;78.46;101253.47;5097031;28;20039;-73
2023/06/18 01:16:49;;;;;;;18.98;10.55;;;;;;;19.86;77.96;101247.78;5097150;28;20154;-74
2023/06/18 01:19:40;;;;;;;17.55;11.32;;;;;;;19.78;77.88;101249.94;5097192;28;20114;-74
2023/06/18 01:22:24;;;;;;;17.70;10.85;;;;;;;19.81;78.30;101254.72;5090496;28;20063;-74
2023/06/18 01:24:51;;;;;;;18.67;10.27;;;;;;;19.61;79.29;101254.66;5091702;28;20655;-75
2023/06/18 01:27:21;;;;;;;15.65;10.35;;;;;;;19.72;78.50;101248.03;5099416;28;20039;-72
2023/06/18 01:29:48;;;;;;;15.55;11.18;;;;;;;19.62;79.06;101239.22;5096639;28;20054;-75
2023/06/18 01:32:13;;;;;;;15.65;11.05;;;;;;;19.58;79.52;101244.16;5093451;28;20039;-75
2023/06/18 01:34:40;;;;;;;13.48;9.63;;;;;;;19.61;79.50;101242.50;5091253;28;20036;-75
2023/06/18 01:37:28;;;;;;;15.75;10.68;;;;;;;19.77;78.51;101241.84;5092010;28;20032;-75
2023/06/18 01:40:00;;;;;;;17.05;10.75;;;;;;;19.68;78.15;101245.22;5096988;28;20455;-75
2023/06/18 01:42:29;;;;;;;16.17;10.93;;;;;;;19.59;79.22;101234.41;5096054;28;20039;-74
2023/06/18 01:45:11;;;;;;;16.75;10.93;;;;;;;19.51;79.66;101232.91;5095488;28;20463;-75
2023/06/18 01:47:38;;;;;;;15.48;11.38;;;;;;;19.54;79.44;101237.72;5102144;28;20034;-74
2023/06/18 01:50:06;;;;;;;17.50;10.50;;;;;;;19.57;79.41;101233.25;5095005;28;20043;-75
2023/06/18 01:52:37;;;;;;;24.25;10.20;;;;;;;19.61;78.55;101233.97;5079872;28;20035;-74
2023/06/18 01:55:03;;;;;;;16.05;11.07;;;;;;;19.55;78.73;101239.34;5072871;28;20032;-75
2023/06/18 01:57:30;;;;;;;19.42;10.07;;;;;;;19.49;80.00;101235.38;5102193;28;20027;-74
2023/06/18 01:59:56;;;;;;;19.13;12.45;;;;;;;19.60;78.85;101244.53;5094804;28;20653;-75
2023/06/18 02:02:21;;;;;;;14.45;9.93;;;;;;;19.57;80.17;101244.59;5072001;28;20100;-74
2023/06/18 02:04:47;;;;;;;17.77;10.90;;;;;;;19.54;81.26;101243.41;5097212;28;20040;-75
2023/06/18 02:07:14;;;;;;;15.00;10.27;;;;;;;19.45;80.16;101237.47;5100186;28;20032;-74
2023/06/18 02:09:39;;;;;;;16.17;11.15;;;;;;;19.40;80.96;101224.59;5096900;28;20077;-74
2023/06/18 02:12:05;;;;;;;16.73;10.68;;;;;;;19.46;81.03;101224.91;5085963;28;20376;-75
2023/06/18 02:14:30;;;;;;;16.98;10.77;;;;;;;19.50;81.09;101228.47;5100027;28;20027;-74
2023/06/18 02:16:57;;;;;;;18.63;12.75;;;;;;;19.38;81.85;101221.38;5091316;28;20062;-74
2023/06/18 02:19:22;;;;;;;15.48;10.57;;;;;;;19.47;80.64;101220.81;5095638;28;20028;-75
2023/06/18 02:21:48;;;;;;;17.20;11.38;;;;;;;19.46;80.43;101213.56;5089765;28;20059;-74
2023/06/18 02:24:15;;;;;;;21.65;11.68;;;;;;;19.43;81.42;101214.41;5099995;28;20104;-75
2023/06/18 02:26:41;;;;;;;18.83;11.52;;;;;;;19.45;80.34;101214.78;5099818;28;20074;-75
2023/06/18 02:29:06;;;;;;;17.38;10.80;;;;;;;19.44;80.71;101218.84;5091236;28;20032;-75
2023/06/18 02:31:32;;;;;;;21.77;11.30;;;;;;;19.40;81.76;101216.06;5072998;28;20124;-74
2023/06/18 02:33:57;;;;;;;19.52;11.18;;;;;;;19.38;80.85;101212.88;5088317;28;20077;-75
2023/06/18 02:36:23;;;;;;;21.45;11.80;;;;;;;19.41;82.17;101220.50;5097571;28;20430;-75
2023/06/18 02:38:51;;;;;;;20.08;11.55;;;;;;;19.47;81.81;101215.16;5091194;28;20106;-75
2023/06/18 02:41:17;;;;;;;19.40;11.40;;;;;;;19.38;82.83;101217.75;5083650;28;20123;-75
2023/06/18 02:43:42;;;;;;;19.00;11.75;;;;;;;19.39;83.51;101220.13;5098274;28;20123;-75
2023/06/18 02:46:08;;;;;;;19.25;12.30;;;;;;;19.40;84.07;101218.13;5091296;28;20563;-75
2023/06/18 02:48:33;;;;;;;17.70;11.65;;;;;;;19.41;83.59;101223.34;5096295;28;20125;-74
2023/06/18 02:50:58;;;;;;;21.10;13.38;;;;;;;19.29;82.18;101221.13;5084447;28;20027;-75
2023/06/18 02:53:24;;;;;;;16.63;11.82;;;;;;;19.40;83.37;101206.75;5081370;28;20054;-75
2023/06/18 02:55:49;;;;;;;17.38;12.27;;;;;;;19.39;82.92;101207.97;5096882;28;20046;-74
2023/06/18 02:58:28;;;;;;;21.38;13.35;;;;;;;19.37;82.99;101210.44;5089858;28;20019;-74
2023/06/18 03:00:59;;;;;;;19.38;12.35;;;;;;;19.39;82.32;101202.31;5081974;28;20032;-75
2023/06/18 03:03:24;;;;;;;21.10;11.82;;;;;;;19.44;81.79;101199.00;5092739;28;20122;-74
2023/06/18 03:05:50;;;;;;;25.75;13.38;;;;;;;19.38;82.22;101200.72;5092863;28;20578;-75
2023/06/18 03:08:16;;;;;;;22.50;13.05;;;;;;;19.41;81.46;101194.16;5097922;28;20027;-75
2023/06/18 03:10:42;;;;;;;18.48;12.05;;;;;;;19.40;81.88;101193.38;5091536;28;20528;-75
2023/06/18 03:13:08;;;;;;;18.15;12.52;;;;;;;19.28;82.73;101185.47;5092160;28;20103;-74
2023/06/18 03:15:33;;;;;;;21.58;13.85;;;;;;;19.23;84.02;101188.78;5089397;28;20024;-73
2023/06/18 03:17:59;;;;;;;20.45;12.32;;;;;;;19.30;83.14;101194.34;5082073;28;20028;-74
2023/06/18 03:20:24;;;;;;;21.40;12.55;;;;;;;19.27;82.90;101184.66;5089767;28;20169;-73
2023/06/18 03:22:49;;;;;;;25.42;13.77;;;;;;;19.14;85.81;101180.81;5096923;28;20028;-73
2023/06/18 03:25:15;;;;;;;18.65;12.80;;;;;;;19.26;82.96;101182.25;5075963;28;20040;-73
2023/06/18 03:27:40;;;;;;;18.80;13.10;;;;;;;19.26;83.51;101179.41;5089132;28;20055;-74
2023/06/18 03:30:06;;;;;;;17.00;10.60;;;;;;;19.26;82.57;101182.25;5090113;28;20031;-73
2023/06/18 03:32:32;;;;;;;22.33;12.98;;;;;;;19.29;83.43;101181.41;5089359;28;20022;-74
2023/06/18 03:34:58;;;;;;;19.77;12.23;;;;;;;19.25;85.01;101181.44;5092595;28;20400;-73
2023/06/18 03:37:23;;;;;;;17.08;12.07;;;;;;;19.25;82.98;101181.44;5089828;28;20032;-73
2023/06/18 03:39:49;;;;;;;22.27;13.20;;;;;;;19.32;82.32;101182.56;5093235;28;20035;-73
2023/06/18 03:42:14;;;;;;;23.23;12.68;;;;;;;19.30;83.30;101183.78;5089766;28;20042;-72
2023/06/18 03:44:40;;;;;;;20.33;13.13;;;;;;;19.25;83.76;101189.97;5096712;28;20027;-73
2023/06/18 03:47:05;;;;;;;19.38;11.52;;;;;;;19.26;83.52;101187.91;5090164;28;20031;-73
2023/06/18 03:49:31;;;;;;;19.95;12.48;;;;;;;19.37;82.42;101190.56;5092591;28;20038;-73
2023/06/18 03:51:56;;;;;;;20.40;13.07;;;;;;;19.25;83.80;101174.97;5090152;28;20020;-73
2023/06/18 03:54:24;;;;;;;19.00;11.75;;;;;;;19.28;82.24;101194.75;5072145;28;20037;-75
2023/06/18 03:56:50;;;;;;;20.13;13.13;;;;;;;19.11;87.54;101193.03;5094686;28;20035;-75
2023/06/18 03:59:15;;;;;;;21.98;12.88;;;;;;;19.22;82.82;101195.69;5086335;28;20039;-75
2023/06/18 04:01:41;;;;;;;20.40;13.35;;;;;;;19.25;83.21;101198.47;5092553;28;20395;-74
2023/06/18 04:04:07;;;;;;;22.23;12.68;;;;;;;19.33;83.42;101192.66;5093574;28;20387;-73
2023/06/18 04:06:32;;;;;;;22.60;14.05;;;;;;;19.20;83.66;101184.75;5075775;28;20387;-73
2023/06/18 04:08:58;;;;;;;18.25;11.98;;;;;;;19.21;83.08;101192.06;5089683;28;20039;-73
2023/06/18 04:11:23;;;;;;;21.23;13.13;;;;;;;19.23;86.29;101195.28;5086625;28;20031;-73
2023/06/18 04:13:48;;;;;;;17.20;12.23;;;;;;;19.24;82.73;101194.03;5081310;28;20050;-73
2023/06/18 04:16:14;;;;;;;17.58;12.45;;;;;;;19.11;82.62;101193.03;5072264;28;20032;-72
2023/06/18 04:18:39;;;;;;;19.90;12.10;;;;;;;19.27;82.50;101190.34;5088268;28;20042;-73
2023/06/18 04:21:04;;;;;;;18.85;11.55;;;;;;;19.25;83.25;101192.00;5097402;28;20035;-74
2023/06/18 04:23:30;;;;;;;17.35;11.55;;;;;;;19.25;82.63;101192.81;5098158;28;20460;-75
2023/06/18 04:25:55;;;;;;;20.88;13.40;;;;;;;19.25;82.60;101187.13;5099245;28;20044;-75
2023/06/18 04:28:22;;;;;;;21.17;13.25;;;;;;;19.24;83.18;101194.03;5089442;28;20384;-76
2023/06/18 04:30:48;;;;;;;18.98;12.02;;;;;;;19.23;84.32;101194.47;5089932;28;20445;-75
2023/06/18 04:33:13;;;;;;;20.35;12.88;;;;;;;19.27;82.72;101198.84;5093039;28;20028;-75
2023/06/18 04:35:39;;;;;;;20.45;12.05;;;;;;;19.33;81.78;101198.34;5098342;28;20101;-75
2023/06/18 04:38:06;;;;;;;19.88;12.05;;;;;;;19.36;83.17;101209.66;5099349;28;20399;-75
2023/06/18 04:40:31;;;;;;;20.27;12.52;;;;;;;19.32;83.19;101203.22;5094156;28;20032;-74
2023/06/18 04:42:58;;;;;;;21.02;12.38;;;;;;;19.27;83.05;101200.91;5093822;27;20032;-75
2023/06/18 04:45:23;;;;;;;18.15;12.23;;;;;;;19.26;83.31;101199.28;5092116;28;20063;-75
2023/06/18 04:47:48;;;;;;;18.85;13.02;;;;;;;19.36;82.43;101203.19;5102039;28;20469;-75
2023/06/18 04:50:14;;;;;;;22.90;12.50;;;;;;;19.36;82.84;101208.84;5095049;28;20046;-74
2023/06/18 04:52:40;;;;;;;19.58;12.82;;;;;;;19.35;83.04;101208.03;5097213;28;20051;-74
2023/06/18 04:55:06;;;;;;;21.67;12.88;;;;;;;19.39;82.80;101213.66;5085354;28;20031;-75
2023/06/18 04:57:31;;;;;;;24.20;14.43;;;;;;;19.42;81.91;101207.13;5097767;28;20028;-74
2023/06/18 04:59:57;;;;;;;18.77;11.60;;;;;;;19.42;83.00;101215.66;5090065;28;20028;-75
2023/06/18 05:02:22;;;;;;;19.08;13.07;;;;;;;19.46;82.97;101213.56;5095422;28;20032;-75
2023/06/18 05:04:48;;;;;;;21.05;13.07;;;;;;;19.48;81.34;101211.09;5096939;28;20055;-75
2023/06/18 05:07:13;;;;;;;23.90;12.57;;;;;;;19.52;83.08;101211.78;5095655;28;20031;-74
2023/06/18 05:09:40;;;;;;;18.48;12.13;;;;;;;19.58;81.71;101215.75;5097489;28;20529;-75
2023/06/18 05:12:06;;;;;;;19.25;12.63;;;;;;;19.58;82.83;101224.25;5094515;28;20635;-74
2023/06/18 05:14:32;;;;;;;20.83;13.55;;;;;;;19.55;83.95;101221.50;5095987;28;20119;-74
2023/06/18 05:16:58;;;;;;;22.25;14.10;;;;;;;19.61;81.43;101214.09;5092860;28;20067;-75
2023/06/18 05:19:23;;;;;;;22.45;13.35;;;;;;;19.64;83.47;101214.03;5097963;28;20399;-75
2023/06/18 05:21:48;;;;;;;20.83;13.40;;;;;;;19.75;82.49;101213.06;5093429;28;20123;-75
2023/06/18 05:24:14;;;;;;;17.85;11.85;;;;;;;19.81;81.05;101211.34;5098737;28;20035;-75
2023/06/18 05:26:39;;;;;;;21.52;13.65;;;;;;;19.53;90.43;101219.09;5098513;28;20054;-75
2023/06/18 05:29:04;;;;;;;18.10;11.27;;;;;;;19.57;81.82;101225.50;5081186;28;20028;-74
2023/06/18 05:31:30;;;;;;;22.30;11.65;;;;;;;19.64;85.38;101219.69;5096463;28;20081;-75
2023/06/18 05:33:55;;;;;;;16.90;10.00;;;;;;;19.88;82.04;101222.53;5098723;28;20620;-75
2023/06/18 05:36:24;;;;;;;22.13;13.52;;;;;;;19.93;82.52;101219.22;5093859;28;20047;-75
2023/06/18 05:38:50;;;;;;;20.30;12.35;;;;;;;19.92;81.27;101226.13;5093251;28;20426;-75
2023/06/18 05:41:15;;;;;;;18.67;12.02;;;;;;;19.77;86.22;101227.63;5092355;28;20027;-75
2023/06/18 05:43:41;;;;;;;21.48;13.23;;;;;;;19.76;83.68;101226.03;5095721;28;20727;-75
2023/06/18 05:46:06;;;;;;;24.13;13.23;;;;;;;19.83;83.10;101225.91;5093902;28;20051;-75
2023/06/18 05:48:31;;;;;;;18.67;12.15;;;;;;;19.93;83.01;101224.91;5075230;28;20066;-74
2023/06/18 05:50:57;;;;;;;28.85;13.90;;;;;;;19.89;87.18;101233.47;5095485;28;20110;-74
2023/06/18 05:53:22;;;;;;;21.42;12.95;;;;;;;19.84;82.65;101222.63;5091479;28;20031;-75
2023/06/18 05:55:47;;;;;;;18.23;12.00;;;;;;;20.09;81.77;101233.53;5096047;28;20055;-75
2023/06/18 05:58:12;;;;;;;23.75;14.70;;;;;;;19.98;86.18;101230.06;5090826;28;20066;-75
2023/06/18 06:00:38;;;;;;;19.42;11.18;;;;;;;20.03;80.76;101221.06;5092094;28;20036;-75
2023/06/18 06:03:03;;;;;;;21.90;13.45;;;;;;;20.13;80.77;101229.81;5099490;28;20753;-75
2023/06/18 06:05:29;;;;;;;24.50;15.02;;;;;;;20.06;85.93;101234.38;5091670;28;20036;-75
2023/06/18 06:07:54;;;;;;;22.58;13.98;;;;;;;20.02;85.82;101232.84;5091143;28;20040;-75
2023/06/18 06:10:20;;;;;;;20.85;12.80;;;;;;;20.13;84.26;101226.97;5095779;28;20035;-75
2023/06/18 06:12:45;;;;;;;28.70;15.10;;;;;;;20.15;89.78;101228.13;5073198;28;20046;-75
2023/06/18 06:15:11;;;;;;;22.05;13.82;;;;;;;20.11;88.45;101230.22;5077442;28;20092;-74
2023/06/18 06:17:37;;;;;;;24.15;14.60;;;;;;;20.20;89.82;101232.53;5096734;28;20027;-75
2023/06/18 06:20:03;;;;;;;19.80;13.13;;;;;;;20.29;85.13;101229.88;5094154;28;20038;-75
2023/06/18 06:22:28;;;;;;;24.00;15.10;;;;;;;20.21;87.42;101228.44;5096045;28;20100;-75
2023/06/18 06:24:54;;;;;;;22.67;15.35;;;;;;;20.08;91.06;101237.59;5101777;28;20071;-75
2023/06/18 06:27:19;;;;;;;21.30;14.75;;;;;;;20.17;89.22;101233.38;5097515;28;20035;-75
2023/06/18 06:29:45;;;;;;;21.50;13.23;;;;;;;20.18;90.18;101229.31;5101686;28;20072;-75
2023/06/18 06:32:10;;;;;;;22.45;13.77;;;;;;;20.25;86.98;101229.16;5094104;28;20047;-75
2023/06/18 06:34:35;;;;;;;24.77;13.63;;;;;;;20.36;88.89;101224.03;5098776;28;20507;-75
2023/06/18 06:37:01;;;;;;;23.25;14.35;;;;;;;20.41;89.74;101226.41;5100562;28;20612;-75
2023/06/18 06:39:27;;;;;;;25.27;14.80;;;;;;;20.54;86.68;101223.69;5097130;28;20074;-75
2023/06/18 06:41:52;;;;;;;21.65;13.13;;;;;;;20.49;80.73;101221.34;5077381;28;20114;-75
2023/06/18 06:44:17;;;;;;;21.73;13.63;;;;;;;20.59;89.08;101228.88;5078628;28;20031;-75
2023/06/18 06:46:43;;;;;;;30.20;15.88;;;;;;;20.65;88.92;101229.16;5074917;28;20035;-75
2023/06/18 06:49:09;;;;;;;26.20;15.65;;;;;;;20.77;88.49;101231.34;5100719;28;20043;-75
2023/06/18 06:51:35;;;;;;;20.60;13.18;;;;;;;20.90;86.34;101228.63;5096082;28;20453;-75
2023/06/18 06:54:01;;;;;;;21.75;13.38;;;;;;;21.04;83.91;101233.16;5101905;28;20110;-75
2023/06/18 06:56:26;;;;;;;22.65;14.45;;;;;;;21.14;85.16;101232.09;5087083;28;20498;-75
2023/06/18 06:58:52;;;;;;;23.13;13.23;;;;;;;21.17;84.92;101236.94;5097428;28;20158;-75
2023/06/18 07:01:19;;;;;;;21.05;12.55;;;;;;;21.29;84.20;101232.56;5096760;28;20422;-75
2023/06/18 07:03:45;;;;;;;21.88;13.38;;;;;;;21.25;84.95;101229.81;5092592;28;20613;-75
2023/06/18 07:06:11;;;;;;;18.17;11.55;;;;;;;21.54;83.10;101248.28;5099070;28;20549;-75
2023/06/18 07:08:36;;;;;;;15.50;11.32;;;;;;;21.65;80.20;101243.91;5095472;28;20035;-75
2023/06/18 07:11:02;;;;;;;22.33;12.07;;;;;;;21.70;83.02;101240.50;5094891;28;20373;-75
2023/06/18 07:13:27;;;;;;;18.60;11.75;;;;;;;21.79;79.73;101236.22;5089735;28;20145;-74
2023/06/18 07:15:52;;;;;;;19.27;11.27;;;;;;;21.79;81.34;101237.03;5071668;28;20027;-75
2023/06/18 07:18:18;;;;;;;22.98;12.27;;;;;;;21.90;80.09;101237.56;5090690;28;20038;-75
2023/06/18 07:20:43;;;;;;;17.77;12.30;;;;;;;22.02;80.87;101238.84;5078900;28;20118;-75
2023/06/18 07:23:08;;;;;;;19.48;12.90;;;;;;;22.15;80.75;101229.56;5077119;28;20032;-75
2023/06/18 07:25:34;;;;;;;18.15;12.60;;;;;;;22.15;79.48;101240.97;5093487;28;20079;-75
2023/06/18 07:27:59;;;;;;;18.90;12.30;;;;;;;22.16;79.58;101239.69;5094705;28;20027;-75
2023/06/18 07:30:24;;;;;;;18.35;12.35;;;;;;;22.39;79.96;101233.78;5092981;28;20046;-75
2023/06/18 07:32:50;;;;;;;22.73;12.82;;;;;;;22.46;77.86;101239.28;5093230;28;20027;-74
2023/06/18 07:35:15;;;;;;;21.67;12.77;;;;;;;22.53;77.53;101233.34;5079589;28;20038;-74
2023/06/18 07:37:41;;;;;;;20.88;13.00;;;;;;;22.73;77.72;101235.22;5077123;28;20026;-75
2023/06/18 07:40:07;;;;;;;17.05;12.07;;;;;;;22.89;76.08;101234.31;5091681;28;20080;-74
2023/06/18 07:42:32;;;;;;;23.30;12.35;;;;;;;22.96;75.60;101233.28;5094471;28;20039;-74
2023/06/18 07:44:57;;;;;;;18.95;12.68;;;;;;;23.08;75.40;101226.81;5089570;28;20039;-74
2023/06/18 07:47:23;;;;;;;18.55;12.23;;;;;;;23.33;75.00;101226.81;5088631;28;20439;-74
2023/06/18 07:49:48;;;;;;;16.42;11.30;;;;;;;23.43;74.16;101221.22;5093750;28;20046;-74
2023/06/18 07:52:14;;;;;;;18.83;11.68;;;;;;;23.62;73.25;101217.28;5098556;28;20073;-75
2023/06/18 07:54:39;;;;;;;19.45;12.52;;;;;;;23.66;71.91;101220.81;5074596;28;20115;-75
2023/06/18 07:57:05;;;;;;;15.60;9.93;;;;;;;23.71;71.56;101223.06;5070030;28;20122;-76
2023/06/18 07:59:30;;;;;;;14.80;10.05;;;;;;;23.99;68.48;101219.69;5090712;28;20032;-76
2023/06/18 08:01:56;;;;;;;14.52;9.93;;;;;;;24.20;67.21;101229.56;5085070;28;20070;-76
2023/06/18 08:04:22;;;;;;;13.38;8.77;;;;;;;24.44;65.08;101216.41;5093234;28;20036;-74
2023/06/18 08:06:48;;;;;;;13.35;8.70;;;;;;;24.47;64.27;101221.16;5082298;28;20034;-76
2023/06/18 08:09:14;;;;;;;12.88;8.65;;;;;;;24.50;63.54;101222.34;5077416;28;20118;-76
2023/06/18 08:11:39;;;;;;;12.07;7.88;;;;;;;24.41;63.83;101223.03;5089897;28;20154;-76
2023/06/18 08:14:05;;;;;;;11.52;9.63;;;;;;;24.48;63.90;101222.78;5067969;28;20031;-77
2023/06/18 08:16:30;;;;;;;11.13;8.80;;;;;;;24.49;64.21;101215.03;5078603;28;20084;-75
2023/06/18 08:18:55;;;;;;;12.02;8.88;;;;;;;24.63;63.31;101219.41;5093810;28;20439;-76
2023/06/18 08:21:21;;;;;;;14.40;9.88;;;;;;;24.69;62.14;101221.19;5098059;28;20084;-76
2023/06/18 08:23:47;;;;;;;11.48;8.63;;;;;;;24.82;60.97;101223.97;5092446;28;20034;-76
2023/06/18 08:26:12;;;;;;;10.48;8.00;;;;;;;24.84;60.36;101226.34;5096516;28;20484;-76
2023/06/18 08:28:38;;;;;;;10.45;7.35;;;;;;;24.76;59.61;101225.84;5076777;28;20035;-76
2023/06/18 08:31:03;;;;;;;13.80;9.63;;;;;;;24.84;59.83;101224.28;5091601;28;20024;-75
2023/06/18 08:33:28;;;;;;;11.35;9.30;;;;;;;25.02;59.80;101225.63;5091042;28;20019;-76
2023/06/18 08:35:54;;;;;;;10.43;8.50;;;;;;;24.97;59.38;101223.41;5094571;28;20033;-75
2023/06/18 08:38:19;;;;;;;9.90;7.55;;;;;;;25.01;59.65;101224.84;5097509;28;20024;-75
2023/06/18 08:40:55;;;;;;;10.90;8.45;;;;;;;25.08;59.10;101218.03;5078482;28;20024;-75
2023/06/18 08:43:26;;;;;;;12.10;8.68;;;;;;;25.40;58.58;101221.66;5093080;28;20476;-75
2023/06/18 08:45:52;;;;;;;10.43;8.50;;;;;;;25.61;57.12;101215.00;5096096;28;20044;-75
2023/06/18 08:48:26;;;;;;;14.05;9.38;;;;;;;25.34;57.95;101219.44;5076952;28;20039;-76
2023/06/18 08:50:59;;;;;;;13.77;9.50;;;;;;;25.28;58.59;101218.44;5101174;28;20038;-76
2023/06/18 08:53:33;;;;;;;14.98;8.63;;;;;;;25.27;59.80;101213.19;5099691;28;20028;-77
2023/06/18 08:56:00;;;;;;;15.13;9.77;;;;;;;25.42;59.25;101211.31;5093630;28;20103;-76
2023/06/18 08:58:27;;;;;;;14.85;9.48;;;;;;;25.44;60.42;101205.09;5092392;28;20046;-76
2023/06/18 09:00:53;;;;;;;13.88;9.93;;;;;;;25.52;59.87;101200.66;5093150;28;20391;-76
2023/06/18 09:03:20;;;;;;;12.93;9.25;;;;;;;25.47;59.75;101207.03;5075407;28;20494;-75
2023/06/18 09:05:45;;;;;;;13.52;9.73;;;;;;;25.32;59.72;101204.78;5096705;28;20080;-76
2023/06/18 09:08:12;;;;;;;16.08;10.02;;;;;;;25.45;59.31;101204.63;5095470;28;20023;-76
2023/06/18 09:10:37;;;;;;;13.57;8.90;;;;;;;25.53;64.21;101202.25;5097772;28;20038;-75
2023/06/18 09:13:03;;;;;;;12.57;9.15;;;;;;;25.65;60.87;101198.44;5092975;28;20020;-75
2023/06/18 09:15:28;;;;;;;14.60;9.65;;;;;;;25.93;57.88;101198.50;5101248;28;20224;-76
2023/06/18 09:17:54;;;;;;;12.30;9.45;;;;;;;26.00;57.05;101201.06;5098517;28;20023;-75
2023/06/18 09:20:20;;;;;;;10.00;8.20;;;;;;;26.14;55.33;101200.41;5078374;28;20052;-76
2023/06/18 09:22:48;;;;;;;10.65;7.93;;;;;;;26.22;53.31;101200.09;5097098;28;20027;-76
2023/06/18 09:25:23;;;;;;;12.73;9.30;;;;;;;26.31;54.11;101202.94;5080506;28;20049;-78
2023/06/18 09:27:48;;;;;;;13.13;8.55;;;;;;;26.36;53.69;101205.97;5091204;28;20447;-76
2023/06/18 09:30:23;;;;;;;15.45;7.93;;;;;;;26.55;55.10;101206.72;5097576;28;20038;-74
2023/06/18 09:32:49;;;;;;;12.52;8.40;;;;;;;26.41;55.64;101195.91;5081839;28;20080;-74
2023/06/18 09:35:18;;;;;;;9.98;8.20;;;;;;;26.60;52.88;101207.38;5090264;28;20028;-75
2023/06/18 09:37:45;;;;;;;10.05;8.40;;;;;;;26.58;51.91;101204.19;5092745;28;20122;-75
2023/06/18 09:40:21;;;;;;;10.75;8.73;;;;;;;26.49;51.00;101202.91;5101873;28;20032;-74
2023/06/18 09:42:51;;;;;;;10.35;8.50;;;;;;;26.43;50.49;101209.78;5078667;28;20569;-75
2023/06/18 09:45:18;;;;;;;11.23;7.80;;;;;;;26.44;49.81;101211.34;5076501;28;20120;-74
2023/06/18 09:47:47;;;;;;;10.10;8.20;;;;;;;26.35;49.44;101203.56;5100311;28;20063;-74
2023/06/18 09:50:13;;;;;;;9.80;8.10;;;;;;;26.43;50.79;101201.94;5100138;28;20055;-75
2023/06/18 09:52:44;;;;;;;9.20;7.03;;;;;;;26.42;48.47;101202.47;5091845;28;20472;-75
2023/06/18 09:55:30;;;;;;;8.50;7.10;;;;;;;26.39;54.21;101207.06;5091645;28;20032;-74
2023/06/18 09:57:57;;;;;;;9.15;7.18;;;;;;;26.53;49.09;101215.00;5080465;28;20791;-74
2023/06/18 10:00:24;;;;;;;10.00;8.00;;;;;;;26.54;50.63;101204.31;5100700;28;20030;-74
2023/06/18 10:02:53;;;;;;;8.80;7.82;;;;;;;26.67;46.40;101207.03;5077638;28;20032;-74
2023/06/18 10:05:18;;;;;;;8.85;6.70;;;;;;;26.80;47.36;101201.91;5078529;28;20038;-75
2023/06/18 10:07:47;;;;;;;10.73;7.47;;;;;;;26.90;49.87;101208.38;5098042;28;20395;-74
2023/06/18 10:10:16;;;;;;;11.90;7.47;;;;;;;26.82;47.63;101207.94;5099068;28;20025;-74
2023/06/18 10:12:48;;;;;;;9.18;7.30;;;;;;;27.00;47.29;101200.53;5084144;28;20024;-74
2023/06/18 10:15:14;;;;;;;8.93;6.85;;;;;;;27.27;46.97;101197.53;5093304;28;20039;-75
2023/06/18 10:17:47;;;;;;;8.90;7.47;;;;;;;27.29;46.36;101194.19;5092619;28;20037;-75
2023/06/18 10:20:15;;;;;;;11.38;7.97;;;;;;;27.18;44.80;101188.97;5095864;28;20633;-75
2023/06/18 10:23:02;;;;;;;12.10;7.45;;;;;;;27.26;46.28;101195.97;5093927;28;20036;-80
2023/06/18 10:25:30;;;;;;;7.88;6.82;;;;;;;27.35;43.93;101195.13;5098095;28;20039;-77
2023/06/18 10:27:56;;;;;;;11.10;7.43;;;;;;;27.55;43.78;101198.19;5094519;28;20032;-77
2023/06/18 10:30:22;;;;;;;9.32;6.50;;;;;;;27.82;44.20;101189.84;5093976;28;20510;-78
2023/06/18 10:32:47;;;;;;;8.68;6.85;;;;;;;27.73;40.91;101182.06;5088195;28;20440;-77
2023/06/18 10:35:14;;;;;;;9.73;7.50;;;;;;;27.40;40.36;101182.16;5092902;28;20032;-77
2023/06/18 10:37:42;;;;;;;13.13;8.50;;;;;;;27.38;41.21;101179.75;5092944;28;20020;-78
2023/06/18 10:40:10;;;;;;;13.07;7.80;;;;;;;27.88;40.68;101173.50;5089292;28;20040;-77
2023/06/18 10:42:35;;;;;;;14.05;8.13;;;;;;;28.00;42.56;101177.38;5090647;28;20091;-78
2023/06/18 10:45:15;;;;;;;11.45;8.27;;;;;;;27.56;43.13;101173.09;5097300;28;20019;-79
2023/06/18 10:47:41;;;;;;;11.20;7.72;;;;;;;27.70;42.81;101172.34;5095368;28;20522;-79
2023/06/18 10:50:06;;;;;;;10.65;7.30;;;;;;;27.37;39.32;101164.59;5090692;28;20024;-78
2023/06/18 10:52:32;;;;;;;13.00;8.70;;;;;;;27.57;37.29;101161.09;5079778;28;20028;-78
2023/06/18 10:55:11;;;;;;;8.82;7.07;;;;;;;27.67;38.70;101167.56;5070595;28;20107;-79
2023/06/18 10:57:51;;;;;;;9.32;7.13;;;;;;;27.52;41.89;101156.03;5099261;28;20032;-78
2023/06/18 11:00:24;;;;;;;10.10;7.03;;;;;;;27.83;37.80;101157.72;5093878;28;20043;-78
2023/06/18 11:02:58;;;;;;;10.25;7.70;;;;;;;27.86;37.91;101155.94;5095483;28;20028;-79
2023/06/18 11:05:35;;;;;;;8.98;6.80;;;;;;;28.06;37.53;101163.91;5095646;28;20118;-79
2023/06/18 11:08:01;;;;;;;10.23;7.35;;;;;;;28.41;36.04;101149.63;5078302;28;20077;-79
2023/06/18 11:10:34;;;;;;;9.40;7.30;;;;;;;27.83;40.07;101143.31;5097330;28;20035;-79